Rumoi, Japan

10:32 AM JST on September 04, 2015 (GMT +0900)
Sapporo | | Change Station
CLOSE
Current Station
Airport
Location: Sapporo AB,
Elevation: 33 ft
Nearby Weather Stations

Elev 33 ft 43.12 °N, 141.38 °E | Updated 9 minutes ago

Rain Showers
Showers Rain
68 °F
Feels Like 68 °F
N
2
Wind Variable Wind from East

Today
High -- | Low -- °F
--% Chance of Precip.
Yesterday
High -- | Low -- °F
Precip. -- in
4:59 AM 6:05 PM
Waning Gibbous, 65% visible
Pressure 29.62 in
Visibility 4.3 miles
Clouds Few 800 ft
Scattered Clouds 3500 ft
Mostly Cloudy 5000 ft
Dew Point 64 °F
Humidity 88%
Rainfall 0.00 in
Snow Depth Not available.
UV 3 out of 12
Pollen Not available.
Air Quality Not available.
Flu Activity Not available.
SPECI RJCO 040123Z 09002KT 7000 SHRA FEW008 SCT035 BKN050 20/18 Q1003 RMK 2ST008 4CU035 6CU050 A2962
Pressure 29.62 in
Visibility 4.3 miles
Clouds Few 800 ft
Scattered Clouds 3500 ft
Mostly Cloudy 5000 ft
Dew Point 64 °F
Humidity 88%
Rainfall 0.00 in
Snow Depth Not available.
UV 3 out of 12
Pollen Not available.
Air Quality Not available.
Flu Activity Not available.
SPECI RJCO 040123Z 09002KT 7000 SHRA FEW008 SCT035 BKN050 20/18 Q1003 RMK 2ST008 4CU035 6CU050 A2962

10-Day Weather Forecast

×

Almanac

Astronomy

Sep. 04, 2015 Rise Set
Actual Time
Civil Twilight
Nautical Twilight
Astronomical Twilight
Moon
Length of Visible Light
Length of Day
Tomorrow will be .
, % of the Moon is Illuminated

Today's Extremes

Country Highs Country Lows

Community

WunderPhotos

Upload Photos

1,852,086 photos uploaded!

WunderBlogs® & News

Nearby

Air Quality

  Air Quality AQ Index Pollutant
Not available.

Snow Depth

Station Depth Elevation

Earthquake Activity

City Distance Mag. Time & Date
Minimum magnitude displayed is 2.5.

Coastal Water Temperatures

Place Temperature

Stations

Nearby Weather Stations

Station Location Temp. Windchill Dew Point Humidity Wind Precip. Elev Updated Type